createdAt,value
2023-02-16T00:01:24.129Z,8.07
2023-02-16T00:03:53.113Z,8.09
2023-02-16T00:06:21.361Z,8.10
2023-02-16T00:08:50.674Z,8.12
2023-02-16T00:11:38.169Z,8.15
2023-02-16T00:14:09.002Z,8.19
2023-02-16T00:16:39.014Z,8.20
2023-02-16T00:19:16.692Z,8.25
2023-02-16T00:21:45.025Z,8.26
2023-02-16T00:24:13.451Z,8.25
2023-02-16T00:26:42.262Z,8.31
2023-02-16T00:29:12.594Z,8.31
2023-02-16T00:31:43.294Z,8.33
2023-02-16T00:34:24.131Z,8.39
2023-02-16T00:36:54.664Z,8.36
2023-02-16T00:39:25.514Z,8.35
2023-02-16T00:41:55.034Z,8.38
2023-02-16T00:44:29.090Z,8.42
2023-02-16T00:47:00.314Z,8.41
2023-02-16T00:49:30.837Z,8.42
2023-02-16T00:51:59.207Z,8.43
2023-02-16T00:54:27.341Z,8.45
2023-02-16T00:56:55.614Z,8.47
2023-02-16T00:59:24.553Z,8.51
2023-02-16T01:01:53.130Z,8.49
2023-02-16T01:04:24.949Z,8.51
2023-02-16T01:07:10.513Z,8.51
2023-02-16T01:09:56.154Z,8.50
2023-02-16T01:12:24.464Z,8.54
2023-02-16T01:14:54.696Z,8.52
2023-02-16T01:17:24.182Z,8.58
2023-02-16T01:19:56.566Z,8.58
2023-02-16T01:22:24.709Z,8.57
2023-02-16T01:24:52.882Z,8.60
2023-02-16T01:27:21.126Z,8.59
2023-02-16T01:29:49.251Z,8.58
2023-02-16T01:32:17.522Z,8.59
2023-02-16T01:34:45.728Z,8.63
2023-02-16T01:37:17.552Z,8.64
2023-02-16T01:39:46.018Z,8.63
2023-02-16T01:42:30.809Z,8.66
2023-02-16T01:45:03.498Z,8.65
2023-02-16T01:47:35.749Z,8.69
2023-02-16T01:50:14.981Z,8.69
2023-02-16T01:52:45.385Z,8.67
2023-02-16T01:55:16.454Z,8.70
2023-02-16T01:57:46.475Z,8.71
2023-02-16T02:00:16.620Z,8.73
2023-02-16T02:02:47.869Z,8.76
2023-02-16T02:05:36.727Z,8.76
2023-02-16T02:08:18.237Z,8.77
2023-02-16T02:10:52.635Z,8.79
2023-02-16T02:13:23.243Z,8.82
2023-02-16T02:15:51.730Z,8.84
2023-02-16T02:18:19.816Z,8.84
2023-02-16T02:21:15.960Z,8.88
2023-02-16T02:23:50.337Z,8.87
2023-02-16T02:26:48.493Z,8.90
2023-02-16T02:29:35.282Z,8.94
2023-02-16T02:32:10.543Z,8.99
2023-02-16T02:34:50.202Z,9.04
2023-02-16T02:37:22.492Z,9.09
2023-02-16T02:39:57.519Z,9.13
2023-02-16T02:42:30.973Z,9.19
2023-02-16T02:45:00.596Z,9.24
2023-02-16T02:47:39.934Z,9.28
2023-02-16T02:50:27.796Z,9.35
2023-02-16T02:52:56.273Z,9.37
2023-02-16T02:55:41.862Z,9.39
2023-02-16T02:58:28.315Z,9.42
2023-02-16T03:00:57.220Z,9.44
2023-02-16T03:03:32.101Z,9.47
2023-02-16T03:06:02.868Z,9.46
2023-02-16T03:08:33.220Z,9.50
2023-02-16T03:11:21.041Z,9.51
2023-02-16T03:13:52.793Z,9.49
2023-02-16T03:16:23.629Z,9.51
2023-02-16T03:19:11.368Z,9.51
2023-02-16T03:21:57.351Z,9.55
2023-02-16T03:24:47.832Z,9.57
2023-02-16T03:27:35.474Z,9.59
2023-02-16T03:30:04.973Z,9.58
2023-02-16T03:32:33.264Z,9.58
2023-02-16T03:35:02.933Z,9.60
2023-02-16T03:37:31.210Z,9.62
2023-02-16T03:40:16.662Z,9.60
2023-02-16T03:42:49.568Z,9.61
2023-02-16T03:45:18.762Z,9.60
2023-02-16T03:47:47.106Z,9.64
2023-02-16T03:50:17.014Z,9.63
2023-02-16T03:52:45.078Z,9.64
2023-02-16T03:55:13.359Z,9.64
2023-02-16T03:57:41.413Z,9.66
2023-02-16T04:00:09.865Z,9.66
2023-02-16T04:02:44.729Z,9.68
2023-02-16T04:05:12.774Z,9.68
2023-02-16T04:07:42.672Z,9.68
2023-02-16T04:10:10.976Z,9.65
2023-02-16T04:12:37.939Z,9.66
2023-02-16T04:15:08.308Z,9.67
2023-02-16T04:17:36.800Z,9.68
2023-02-16T04:20:05.766Z,9.71
2023-02-16T04:22:33.796Z,9.71
2023-02-16T04:25:03.372Z,9.70
2023-02-16T04:27:31.560Z,9.71
2023-02-16T04:29:59.762Z,9.73
2023-02-16T04:32:27.979Z,9.73
2023-02-16T04:34:56.038Z,9.73
2023-02-16T04:37:24.201Z,9.73
2023-02-16T04:39:52.298Z,9.72
2023-02-16T04:42:21.839Z,9.71
2023-02-16T04:44:50.114Z,9.73
2023-02-16T04:47:18.278Z,9.74
2023-02-16T04:49:48.071Z,9.73
2023-02-16T04:52:18.067Z,9.73
2023-02-16T04:54:46.305Z,9.72
2023-02-16T04:57:14.739Z,9.72
2023-02-16T04:59:44.312Z,9.73
2023-02-16T05:02:12.367Z,9.72
2023-02-16T05:04:42.187Z,9.73
2023-02-16T05:07:10.319Z,9.72
2023-02-16T05:09:38.448Z,9.69
2023-02-16T05:12:24.001Z,9.71
2023-02-16T05:14:53.520Z,9.74
2023-02-16T05:17:22.710Z,9.72
2023-02-16T05:19:52.219Z,9.72
2023-02-16T05:22:20.765Z,9.70
2023-02-16T05:24:49.042Z,9.71
2023-02-16T05:27:18.017Z,9.72
2023-02-16T05:29:46.342Z,9.69
2023-02-16T05:32:16.033Z,9.69
2023-02-16T05:34:45.041Z,9.66
2023-02-16T05:37:13.719Z,9.67
2023-02-16T05:39:41.916Z,9.64
2023-02-16T05:42:10.271Z,9.65
2023-02-16T05:44:39.116Z,9.64
2023-02-16T05:47:07.380Z,9.62
2023-02-16T05:49:37.150Z,9.63
2023-02-16T05:52:05.290Z,9.60
2023-02-16T05:54:33.504Z,9.56
2023-02-16T05:57:01.611Z,9.54
2023-02-16T05:59:29.796Z,9.52
2023-02-16T06:01:58.067Z,9.47
2023-02-16T06:04:26.295Z,9.44
2023-02-16T06:06:56.085Z,9.37
2023-02-16T06:09:24.161Z,9.36
2023-02-16T06:11:52.232Z,9.32
2023-02-16T06:14:21.740Z,9.25
2023-02-16T06:16:51.558Z,9.20
2023-02-16T06:19:20.583Z,9.18
2023-02-16T06:21:49.206Z,9.16
2023-02-16T06:24:18.614Z,9.11
2023-02-16T06:26:46.661Z,9.09
2023-02-16T06:29:14.760Z,9.11
2023-02-16T06:31:43.295Z,9.11
2023-02-16T06:34:11.511Z,9.11
2023-02-16T06:36:42.383Z,9.06
2023-02-16T06:39:10.754Z,9.10
2023-02-16T06:41:41.245Z,9.10
2023-02-16T06:44:12.478Z,9.10
2023-02-16T06:46:40.785Z,9.08
2023-02-16T06:49:09.013Z,9.10
2023-02-16T06:51:37.038Z,9.04
2023-02-16T06:54:05.539Z,9.06
2023-02-16T06:56:35.428Z,9.09
2023-02-16T06:59:06.303Z,9.08
2023-02-16T07:01:34.583Z,9.03
2023-02-16T07:04:02.679Z,9.07
2023-02-16T07:06:31.015Z,9.05
2023-02-16T07:09:00.387Z,9.00
2023-02-16T07:11:28.426Z,9.02
2023-02-16T07:13:56.495Z,8.98
2023-02-16T07:16:26.152Z,8.95
2023-02-16T07:18:54.410Z,8.99
2023-02-16T07:21:22.765Z,8.93
2023-02-16T07:23:50.908Z,8.93
2023-02-16T07:26:19.222Z,8.94
2023-02-16T07:28:47.307Z,8.90
2023-02-16T07:31:16.642Z,8.89
2023-02-16T07:33:46.228Z,8.88
2023-02-16T07:36:14.809Z,8.84
2023-02-16T07:38:43.167Z,8.81
2023-02-16T07:41:11.648Z,8.80
2023-02-16T07:43:42.860Z,8.74
2023-02-16T07:46:11.425Z,8.73
2023-02-16T07:48:39.645Z,8.70
2023-02-16T07:51:09.352Z,8.68
2023-02-16T07:53:37.483Z,8.56
2023-02-16T07:56:05.978Z,8.60
2023-02-16T07:58:34.178Z,8.54
2023-02-16T08:01:09.006Z,8.59
2023-02-16T08:03:38.937Z,8.55
2023-02-16T08:06:08.749Z,8.57
2023-02-16T08:08:45.941Z,8.57
2023-02-16T08:11:17.870Z,8.62
2023-02-16T08:13:46.505Z,8.56
2023-02-16T08:16:15.872Z,8.56
2023-02-16T08:18:44.208Z,8.54
2023-02-16T08:21:15.095Z,8.53
2023-02-16T08:23:47.706Z,8.52
2023-02-16T08:26:20.080Z,8.55
2023-02-16T08:28:50.237Z,8.55
2023-02-16T08:31:19.302Z,8.53
2023-02-16T08:33:49.240Z,8.58
2023-02-16T08:36:20.600Z,8.53
2023-02-16T08:38:52.228Z,8.56
2023-02-16T08:41:20.975Z,8.52
2023-02-16T08:43:49.708Z,8.60
2023-02-16T08:46:18.516Z,8.59
2023-02-16T08:48:47.546Z,8.53
2023-02-16T08:51:16.349Z,8.46
2023-02-16T08:53:44.551Z,8.41
2023-02-16T08:56:14.624Z,8.43
2023-02-16T08:58:45.950Z,8.42
2023-02-16T09:01:15.517Z,8.35
2023-02-16T09:03:46.292Z,8.34
2023-02-16T09:06:15.735Z,8.37
2023-02-16T09:08:44.809Z,8.41
2023-02-16T09:11:15.653Z,8.35
2023-02-16T09:13:44.813Z,8.34
2023-02-16T09:16:14.223Z,8.38
2023-02-16T09:18:45.075Z,8.47
2023-02-16T09:21:15.112Z,8.59
2023-02-16T09:23:48.218Z,8.60
2023-02-16T09:26:18.586Z,8.58
2023-02-16T09:28:47.467Z,8.70
2023-02-16T09:31:16.653Z,8.84
2023-02-16T09:33:45.575Z,8.73
2023-02-16T09:36:14.379Z,8.93
2023-02-16T09:38:43.368Z,9.01
2023-02-16T09:41:19.873Z,9.22
2023-02-16T09:43:52.551Z,9.37
2023-02-16T09:46:23.039Z,9.28
2023-02-16T09:48:52.951Z,9.63
2023-02-16T09:51:29.514Z,9.48
2023-02-16T09:54:05.446Z,9.55
2023-02-16T09:56:37.934Z,9.54
2023-02-16T09:59:12.863Z,9.44
2023-02-16T10:01:45.717Z,9.43
2023-02-16T10:04:27.614Z,9.39
2023-02-16T10:07:04.058Z,9.37
2023-02-16T10:09:34.226Z,9.33
2023-02-16T10:12:05.891Z,9.26
2023-02-16T10:14:41.394Z,9.38
2023-02-16T10:17:15.316Z,9.66
2023-02-16T10:19:48.191Z,9.80
2023-02-16T10:22:18.977Z,10.00
2023-02-16T10:24:52.164Z,10.06
2023-02-16T10:27:23.273Z,10.33
2023-02-16T10:29:53.286Z,10.57
2023-02-16T10:32:26.270Z,10.77
2023-02-16T10:34:59.750Z,10.93
2023-02-16T10:37:40.986Z,10.97
2023-02-16T10:40:19.411Z,10.81
2023-02-16T10:42:53.610Z,10.53
2023-02-16T10:45:27.354Z,10.43
2023-02-16T10:47:55.707Z,10.42
2023-02-16T10:50:25.405Z,10.47
2023-02-16T10:52:56.332Z,10.26
2023-02-16T10:55:24.681Z,10.13
2023-02-16T10:57:56.046Z,9.85
2023-02-16T11:00:30.456Z,10.01
2023-02-16T11:02:58.557Z,9.90
2023-02-16T11:05:32.424Z,9.97
2023-02-16T11:08:02.157Z,9.99
2023-02-16T11:10:42.187Z,10.23
2023-02-16T11:13:20.258Z,10.51
2023-02-16T11:15:54.673Z,10.75
2023-02-16T11:18:27.303Z,10.93
2023-02-16T11:20:56.523Z,11.04
2023-02-16T11:23:26.928Z,10.97
2023-02-16T11:25:56.620Z,10.67
2023-02-16T11:28:32.085Z,10.88
2023-02-16T11:31:11.629Z,10.70
2023-02-16T11:33:41.594Z,10.77
2023-02-16T11:36:25.795Z,10.92
2023-02-16T11:38:58.316Z,11.28
2023-02-16T11:41:27.398Z,11.49
2023-02-16T11:43:56.503Z,11.71
2023-02-16T11:46:27.023Z,12.09
2023-02-16T11:48:55.467Z,12.52
2023-02-16T11:51:34.603Z,12.92
2023-02-16T11:54:05.704Z,13.18
2023-02-16T11:56:37.552Z,13.08
2023-02-16T11:59:07.584Z,13.09
2023-02-16T12:01:47.153Z,13.17
2023-02-16T12:04:23.533Z,13.36
2023-02-16T12:06:55.446Z,13.61
2023-02-16T12:09:31.002Z,13.31
2023-02-16T12:12:04.751Z,13.52
2023-02-16T12:14:41.395Z,13.35
2023-02-16T12:17:21.798Z,13.12
2023-02-16T12:19:53.546Z,12.97
2023-02-16T12:22:27.583Z,12.89
2023-02-16T12:25:04.022Z,12.47
2023-02-16T12:27:34.847Z,12.38
2023-02-16T12:30:09.930Z,12.16
2023-02-16T12:32:47.039Z,12.22
2023-02-16T12:35:28.853Z,12.12
2023-02-16T12:38:03.664Z,12.23
2023-02-16T12:40:39.208Z,12.03
2023-02-16T12:43:16.661Z,11.95
2023-02-16T12:45:47.367Z,12.08
2023-02-16T12:48:24.474Z,11.96
2023-02-16T12:50:54.381Z,11.92
2023-02-16T12:53:27.727Z,11.90
2023-02-16T12:55:57.790Z,11.78
2023-02-16T12:58:27.702Z,11.83
2023-02-16T13:00:58.837Z,11.70
2023-02-16T13:03:34.821Z,11.53
2023-02-16T13:06:08.713Z,11.61
2023-02-16T13:08:40.971Z,11.29
2023-02-16T13:11:12.827Z,11.44
2023-02-16T13:13:42.051Z,11.32
2023-02-16T13:16:29.087Z,11.28
2023-02-16T13:19:00.204Z,11.31
2023-02-16T13:21:50.528Z,11.23
2023-02-16T13:24:24.661Z,11.22
2023-02-16T13:27:01.282Z,11.22
2023-02-16T13:29:41.453Z,11.27
2023-02-16T13:32:19.295Z,11.30
2023-02-16T13:35:00.281Z,11.41
2023-02-16T13:37:35.609Z,11.42
2023-02-16T13:40:18.737Z,11.50
2023-02-16T13:42:54.074Z,11.52
2023-02-16T13:45:22.869Z,11.63
2023-02-16T13:47:53.371Z,11.65
2023-02-16T13:50:40.828Z,11.61
2023-02-16T13:53:24.685Z,11.64
2023-02-16T13:56:13.110Z,11.65
2023-02-16T13:58:41.979Z,11.59
2023-02-16T14:01:36.724Z,11.59
2023-02-16T14:04:05.202Z,11.63
2023-02-16T14:06:37.168Z,11.63
2023-02-16T14:09:24.516Z,11.67
2023-02-16T14:12:04.844Z,11.65
2023-02-16T14:14:35.126Z,11.68
2023-02-16T14:17:17.148Z,11.59
2023-02-16T14:19:50.939Z,11.48
2023-02-16T14:22:21.933Z,11.54
2023-02-16T14:24:53.863Z,11.49
2023-02-16T14:27:56.455Z,11.44
2023-02-16T14:30:28.348Z,11.44
2023-02-16T14:33:00.608Z,11.44
2023-02-16T14:35:30.981Z,11.42
2023-02-16T14:38:00.131Z,11.48
2023-02-16T14:40:42.421Z,11.54
2023-02-16T14:43:21.606Z,11.55
2023-02-16T14:46:13.809Z,11.58
2023-02-16T14:48:55.812Z,11.64
2023-02-16T14:51:36.277Z,11.58
2023-02-16T14:54:16.668Z,11.57
2023-02-16T14:56:47.292Z,11.65
2023-02-16T14:59:25.068Z,11.70
2023-02-16T15:01:53.245Z,11.67
2023-02-16T15:04:29.373Z,11.69
2023-02-16T15:06:59.368Z,11.70
2023-02-16T15:09:31.261Z,11.69
2023-02-16T15:12:18.048Z,11.76
2023-02-16T15:14:49.230Z,11.78
2023-02-16T15:17:24.425Z,11.71
2023-02-16T15:19:53.738Z,11.77
2023-02-16T15:22:22.758Z,11.72
2023-02-16T15:25:01.256Z,11.83
2023-02-16T15:27:30.220Z,11.82
2023-02-16T15:30:12.104Z,11.90
2023-02-16T15:32:41.296Z,11.85
2023-02-16T15:35:14.098Z,11.85
2023-02-16T15:37:42.256Z,11.92
2023-02-16T15:40:30.433Z,11.90
2023-02-16T15:43:01.766Z,11.87
2023-02-16T15:45:32.593Z,11.91
2023-02-16T15:48:24.942Z,11.97
2023-02-16T15:50:54.778Z,11.98
2023-02-16T15:53:33.711Z,12.04
2023-02-16T15:56:04.428Z,12.04
2023-02-16T15:58:33.844Z,12.04
2023-02-16T16:01:03.727Z,12.13
2023-02-16T16:03:31.984Z,12.10
2023-02-16T16:06:05.235Z,12.20
2023-02-16T16:08:33.925Z,12.23
2023-02-16T16:11:02.658Z,12.30
2023-02-16T16:13:32.184Z,12.33
2023-02-16T16:16:01.964Z,12.37
2023-02-16T16:18:50.307Z,12.31
2023-02-16T16:21:20.658Z,12.42
2023-02-16T16:23:56.751Z,12.41
2023-02-16T16:26:26.135Z,12.45
2023-02-16T16:28:54.856Z,12.51
2023-02-16T16:31:42.958Z,12.54
2023-02-16T16:34:31.898Z,12.51
2023-02-16T16:37:02.678Z,12.57
2023-02-16T16:39:32.351Z,12.56
2023-02-16T16:42:18.532Z,12.57
2023-02-16T16:44:54.658Z,12.55
2023-02-16T16:47:27.818Z,12.58
2023-02-16T16:49:58.360Z,12.54
2023-02-16T16:52:34.020Z,12.52
2023-02-16T16:55:02.153Z,12.50
2023-02-16T16:57:31.039Z,12.49
2023-02-16T16:59:59.150Z,12.51
2023-02-16T17:02:27.736Z,12.51
2023-02-16T17:04:57.665Z,12.52
2023-02-16T17:07:34.948Z,12.48
2023-02-16T17:10:12.259Z,12.44
2023-02-16T17:12:40.414Z,12.44
2023-02-16T17:15:22.287Z,12.46
2023-02-16T17:17:50.782Z,12.43
2023-02-16T17:20:21.711Z,12.39
2023-02-16T17:22:53.152Z,12.42
2023-02-16T17:25:21.650Z,12.39
2023-02-16T17:27:49.964Z,12.41
2023-02-16T17:30:21.401Z,12.34
2023-02-16T17:32:53.059Z,12.32
2023-02-16T17:35:23.205Z,12.31
2023-02-16T17:37:51.732Z,12.31
2023-02-16T17:40:21.108Z,12.23
2023-02-16T17:42:49.940Z,12.24
2023-02-16T17:45:20.681Z,12.17
2023-02-16T17:47:51.481Z,12.16
2023-02-16T17:50:20.821Z,12.19
2023-02-16T17:52:50.330Z,12.16
2023-02-16T17:55:19.113Z,12.20
2023-02-16T17:57:47.184Z,12.21
2023-02-16T18:00:19.008Z,12.18
2023-02-16T18:02:47.912Z,12.17
2023-02-16T18:05:16.394Z,12.22
2023-02-16T18:07:44.553Z,12.23
2023-02-16T18:10:20.913Z,12.23
2023-02-16T18:12:49.010Z,12.23
2023-02-16T18:15:17.189Z,12.16
2023-02-16T18:17:45.396Z,12.16
2023-02-16T18:20:15.998Z,12.16
2023-02-16T18:22:44.186Z,12.07
2023-02-16T18:25:12.730Z,12.04
2023-02-16T18:27:42.884Z,12.04
2023-02-16T18:30:12.718Z,12.07
2023-02-16T18:32:41.969Z,12.05
2023-02-16T18:35:11.658Z,12.03
2023-02-16T18:37:40.479Z,11.95
2023-02-16T18:40:11.561Z,11.96
2023-02-16T18:42:40.412Z,11.97
2023-02-16T18:45:11.293Z,11.95
2023-02-16T18:47:40.020Z,11.93
2023-02-16T18:50:08.607Z,11.95
2023-02-16T18:52:36.708Z,11.87
2023-02-16T18:55:04.887Z,11.88
2023-02-16T18:57:32.933Z,11.87
2023-02-16T19:00:00.940Z,11.92
2023-02-16T19:02:30.457Z,11.93
2023-02-16T19:04:58.957Z,11.81
2023-02-16T19:07:27.084Z,11.88
2023-02-16T19:09:55.121Z,11.83
2023-02-16T19:12:23.437Z,11.89
2023-02-16T19:14:51.589Z,11.86
2023-02-16T19:17:19.814Z,11.85
2023-02-16T19:19:49.504Z,11.86
2023-02-16T19:22:18.738Z,11.82
2023-02-16T19:24:49.470Z,11.82
2023-02-16T19:27:19.289Z,11.75
2023-02-16T19:29:48.722Z,11.82
2023-02-16T19:32:19.252Z,11.76
2023-02-16T19:34:49.529Z,11.72
2023-02-16T19:37:18.437Z,11.81
2023-02-16T19:39:47.292Z,11.74
2023-02-16T19:42:15.593Z,11.74
2023-02-16T19:44:43.540Z,11.76
2023-02-16T19:47:11.727Z,11.71
2023-02-16T19:49:40.012Z,11.68
2023-02-16T19:52:09.938Z,11.64
2023-02-16T19:54:37.969Z,11.61
2023-02-16T19:57:06.318Z,11.59
2023-02-16T19:59:34.358Z,11.61
2023-02-16T20:02:02.724Z,11.58
2023-02-16T20:04:31.012Z,11.53
2023-02-16T20:06:59.213Z,11.54
2023-02-16T20:09:29.291Z,11.53
2023-02-16T20:11:57.473Z,11.49
2023-02-16T20:14:25.484Z,11.48
2023-02-16T20:16:53.557Z,11.44
2023-02-16T20:19:21.822Z,11.43
2023-02-16T20:21:50.233Z,11.42
2023-02-16T20:24:18.311Z,11.41
2023-02-16T20:26:49.208Z,11.32
2023-02-16T20:29:17.394Z,11.36
2023-02-16T20:31:48.994Z,11.34
2023-02-16T20:34:17.520Z,11.28
2023-02-16T20:36:45.653Z,11.27
2023-02-16T20:39:13.901Z,11.28
2023-02-16T20:41:42.132Z,11.26
2023-02-16T20:44:12.280Z,11.21
2023-02-16T20:46:40.765Z,11.22
2023-02-16T20:49:09.356Z,11.23
2023-02-16T20:51:37.868Z,11.23
2023-02-16T20:54:06.400Z,11.27
2023-02-16T20:56:34.605Z,11.22
2023-02-16T20:59:02.916Z,11.23
2023-02-16T21:01:33.856Z,11.22
2023-02-16T21:04:02.226Z,11.21
2023-02-16T21:06:30.775Z,11.24
2023-02-16T21:08:58.944Z,11.22
2023-02-16T21:11:27.242Z,11.22
2023-02-16T21:13:55.475Z,11.20
2023-02-16T21:16:23.599Z,11.21
2023-02-16T21:18:53.089Z,11.22
2023-02-16T21:21:21.369Z,11.15
2023-02-16T21:23:50.878Z,11.16
2023-02-16T21:26:19.549Z,11.21
2023-02-16T21:28:47.926Z,11.18
2023-02-16T21:31:17.584Z,11.09
2023-02-16T21:33:46.111Z,11.15
2023-02-16T21:36:16.549Z,11.13
2023-02-16T21:38:44.996Z,11.15
2023-02-16T21:41:25.616Z,11.12
2023-02-16T21:43:55.270Z,11.08
2023-02-16T21:46:23.702Z,11.08
2023-02-16T21:48:50.743Z,11.02
2023-02-16T21:51:21.497Z,11.06
2023-02-16T21:53:49.850Z,11.05
2023-02-16T21:56:33.404Z,11.06
2023-02-16T21:59:01.866Z,10.99
2023-02-16T22:01:30.715Z,11.00
2023-02-16T22:04:00.431Z,10.99
2023-02-16T22:06:32.315Z,10.99
2023-02-16T22:09:00.860Z,10.95
2023-02-16T22:11:29.504Z,10.98
2023-02-16T22:13:58.109Z,10.97
2023-02-16T22:16:27.023Z,10.99
2023-02-16T22:18:58.054Z,10.92
2023-02-16T22:21:26.748Z,10.88
2023-02-16T22:23:56.598Z,10.93
2023-02-16T22:26:26.200Z,10.91
2023-02-16T22:28:54.598Z,10.94
2023-02-16T22:31:24.593Z,10.92
2023-02-16T22:33:56.660Z,10.95
2023-02-16T22:36:24.836Z,10.92
2023-02-16T22:38:54.558Z,10.98
2023-02-16T22:41:24.639Z,10.89
2023-02-16T22:43:53.365Z,10.91
2023-02-16T22:46:21.530Z,10.95
2023-02-16T22:48:49.943Z,10.89
2023-02-16T22:51:18.964Z,10.92
2023-02-16T22:53:47.186Z,10.93
2023-02-16T22:56:16.274Z,10.84
2023-02-16T22:58:45.800Z,10.90
2023-02-16T23:01:15.317Z,10.88
2023-02-16T23:03:43.887Z,10.87
2023-02-16T23:06:13.159Z,10.85
2023-02-16T23:08:41.356Z,10.93
2023-02-16T23:11:09.459Z,10.87
2023-02-16T23:13:37.672Z,10.86
2023-02-16T23:16:08.810Z,10.91
2023-02-16T23:18:36.902Z,10.92
2023-02-16T23:21:06.218Z,10.83
2023-02-16T23:23:34.639Z,10.85
2023-02-16T23:26:02.791Z,10.93
2023-02-16T23:28:30.882Z,10.88
2023-02-16T23:30:59.068Z,10.88
2023-02-16T23:33:28.758Z,10.89
2023-02-16T23:35:57.069Z,10.88
2023-02-16T23:38:25.453Z,10.91
2023-02-16T23:40:57.223Z,10.88
2023-02-16T23:43:25.564Z,10.92
2023-02-16T23:45:53.881Z,10.85
2023-02-16T23:48:22.316Z,10.89
2023-02-16T23:50:52.560Z,10.91
2023-02-16T23:53:21.090Z,10.91
2023-02-16T23:55:57.482Z,10.88
2023-02-16T23:58:26.426Z,10.89
